Time;durP1;ratioP1;P1;durP2;ratioP2;P2;SDS_P1;SDS_P2;PMS_P1;PMS_P2;Temp;Humidity;BMP_temperature;BMP_pressure;BME280_temperature;BME280_humidity;BME280_pressure;Samples;Min_cycle;Max_cycle;Signal;HPM_P1;HPM_P2
2022/06/15 00:01:27;;;;;;;2.20;1.90;;;;;;;12.83;68.04;100304.40;213751;1274;140148;-63
2022/06/15 00:06:36;;;;;;;2.80;2.60;;;;;;;12.80;67.74;100303.39;214953;1271;139672;-64
2022/06/15 00:11:43;;;;;;;5.40;2.90;;;;;;;12.71;68.21;100305.98;214793;1271;140362;-64
2022/06/15 00:16:48;;;;;;;8.80;3.00;;;;;;;12.70;68.46;100308.03;213604;1271;140919;-63
2022/06/15 00:21:53;;;;;;;4.80;2.10;;;;;;;12.68;68.30;100307.61;214335;1269;143028;-62
2022/06/15 00:26:57;;;;;;;7.30;3.20;;;;;;;12.67;68.70;100309.02;213686;1272;234628;-62
2022/06/15 00:32:02;;;;;;;2.90;2.60;;;;;;;12.66;69.01;100310.61;214238;1271;141125;-64
2022/06/15 00:37:06;;;;;;;7.60;2.80;;;;;;;12.56;68.81;100312.95;215219;1271;140516;-64
2022/06/15 00:42:13;;;;;;;6.90;2.70;;;;;;;12.46;68.73;100311.63;214574;1271;142611;-64
2022/06/15 00:47:22;;;;;;;3.90;2.70;;;;;;;12.35;68.73;100315.89;215346;1271;140495;-63
2022/06/15 00:52:37;;;;;;;2.80;2.20;;;;;;;12.16;68.54;100312.89;214877;1274;139999;-62
2022/06/15 00:57:42;;;;;;;3.00;2.70;;;;;;;12.02;68.67;100314.74;215587;1271;140864;-63
2022/06/15 01:02:47;;;;;;;3.10;2.70;;;;;;;11.86;68.78;100312.37;215684;1271;140063;-62
2022/06/15 01:08:13;;;;;;;12.30;3.30;;;;;;;11.69;68.65;100315.38;216350;1271;139496;-62
2022/06/15 01:13:48;;;;;;;3.80;2.60;;;;;;;11.53;68.50;100313.24;216540;1271;140678;-62
2022/06/15 01:19:13;;;;;;;5.00;3.10;;;;;;;11.36;68.34;100314.33;216233;1271;140390;-63
2022/06/15 01:25:00;;;;;;;4.10;3.30;;;;;;;11.08;68.31;100307.05;215857;1271;141294;-62
2022/06/15 01:30:26;;;;;;;2.80;2.60;;;;;;;10.82;68.69;100308.50;216274;1271;140020;-63
2022/06/15 01:35:43;;;;;;;4.10;2.30;;;;;;;10.64;68.91;100311.73;215442;1271;139397;-62
2022/06/15 01:41:02;;;;;;;2.30;2.00;;;;;;;10.48;69.08;100312.54;214583;1271;142250;-62
2022/06/15 01:46:08;;;;;;;8.30;3.60;;;;;;;10.35;69.10;100307.92;215508;1272;141009;-63
2022/06/15 01:51:20;;;;;;;3.70;3.40;;;;;;;10.20;69.32;100303.31;215177;1273;139876;-64
2022/06/15 01:56:31;;;;;;;5.90;3.10;;;;;;;10.06;69.74;100303.09;215422;1274;142066;-63
2022/06/15 02:02:25;;;;;;;3.10;2.80;;;;;;;9.94;69.86;100308.52;213783;1273;140590;-63
2022/06/15 02:07:50;;;;;;;3.00;2.80;;;;;;;9.79;70.06;100307.89;212927;1280;141103;-63
2022/06/15 02:13:19;;;;;;;2.40;2.10;;;;;;;9.63;70.07;100315.28;214439;1273;140755;-63
2022/06/15 02:18:26;;;;;;;6.30;3.00;;;;;;;9.53;70.38;100312.39;214334;1274;575015;-62
2022/06/15 02:23:34;;;;;;;3.10;2.80;;;;;;;9.46;70.66;100312.44;213528;1274;140582;-63
2022/06/15 02:28:43;;;;;;;2.60;2.40;;;;;;;9.47;71.21;100313.14;214562;1274;139324;-62
2022/06/15 02:33:54;;;;;;;2.80;2.60;;;;;;;9.41;70.91;100315.98;213618;1274;139993;-62
2022/06/15 02:38:59;;;;;;;4.30;3.50;;;;;;;9.27;71.12;100317.64;214994;1273;139917;-62
2022/06/15 02:44:07;;;;;;;3.30;3.00;;;;;;;9.20;71.32;100319.14;215338;1272;141306;-62
2022/06/15 02:49:12;;;;;;;4.50;2.80;;;;;;;9.24;71.82;100324.04;213451;1274;140037;-62
2022/06/15 02:54:23;;;;;;;3.00;2.80;;;;;;;9.26;71.66;100331.80;215141;1272;139749;-62
2022/06/15 02:59:31;;;;;;;3.30;3.00;;;;;;;9.23;71.70;100334.44;215491;1273;141365;-62
2022/06/15 03:04:35;;;;;;;3.20;3.00;;;;;;;9.32;72.56;100340.83;215656;1273;139098;-63
2022/06/15 03:09:41;;;;;;;3.70;3.20;;;;;;;9.43;72.42;100342.30;216472;1273;139759;-63
2022/06/15 03:14:45;;;;;;;3.00;2.80;;;;;;;9.58;72.47;100341.02;215901;1273;141672;-64
2022/06/15 03:19:49;;;;;;;5.50;2.70;;;;;;;9.77;72.71;100342.02;215747;1273;139948;-64
2022/06/15 03:24:55;;;;;;;4.00;3.00;;;;;;;9.97;72.71;100347.75;215005;1273;141026;-64
2022/06/15 03:30:00;;;;;;;5.60;3.70;;;;;;;10.23;73.27;100348.35;214889;1273;139844;-64
2022/06/15 03:35:06;;;;;;;5.90;4.50;;;;;;;10.46;73.14;100351.89;215165;1273;140257;-63
2022/06/15 03:40:11;;;;;;;10.80;5.40;;;;;;;10.76;73.21;100345.15;214390;1272;142195;-65
2022/06/15 03:45:16;;;;;;;6.60;4.40;;;;;;;11.12;73.19;100344.15;214417;1273;141913;-63
2022/06/15 03:50:23;;;;;;;8.00;5.40;;;;;;;11.35;72.93;100345.59;214211;1273;144448;-64
2022/06/15 03:55:28;;;;;;;9.00;5.90;;;;;;;11.58;72.72;100347.88;213578;1274;140874;-64
2022/06/15 04:00:37;;;;;;;9.50;5.40;;;;;;;11.74;72.43;100349.95;213823;1274;140967;-63
2022/06/15 04:05:50;;;;;;;6.30;5.50;;;;;;;11.87;72.22;100346.52;213668;1273;141819;-63
2022/06/15 04:10:54;;;;;;;10.20;6.70;;;;;;;11.95;72.05;100352.55;213900;1274;141317;-64
2022/06/15 04:15:58;;;;;;;6.80;4.80;;;;;;;11.97;71.85;100352.98;214020;1272;141556;-63
2022/06/15 04:21:03;;;;;;;8.50;5.10;;;;;;;12.01;71.48;100358.91;213674;1274;140393;-63
2022/06/15 04:26:10;;;;;;;15.40;5.60;;;;;;;12.02;71.48;100355.69;214213;1273;153304;-63
2022/06/15 04:31:15;;;;;;;8.30;5.60;;;;;;;12.20;71.28;100359.86;213821;1273;141636;-64
2022/06/15 04:36:21;;;;;;;7.90;5.30;;;;;;;12.57;71.05;100362.02;214402;1271;142558;-63
2022/06/15 04:41:26;;;;;;;4.70;4.40;;;;;;;13.44;70.43;100356.34;214672;1271;140655;-63
2022/06/15 04:46:32;;;;;;;13.70;5.90;;;;;;;14.08;69.16;100360.65;214510;1271;140878;-63
2022/06/15 04:51:41;;;;;;;5.30;4.50;;;;;;;14.74;68.42;100362.29;215390;1271;210402;-63
2022/06/15 04:56:46;;;;;;;8.10;4.50;;;;;;;15.06;67.88;100366.92;216543;1273;141132;-64
2022/06/15 05:01:52;;;;;;;4.00;2.40;;;;;;;15.60;67.10;100365.15;216278;1271;141088;-64
2022/06/15 05:07:01;;;;;;;10.10;3.90;;;;;;;16.91;64.53;100368.43;216082;1272;141355;-65
2022/06/15 05:12:06;;;;;;;5.40;3.80;;;;;;;19.92;60.90;100362.50;216161;1272;141396;-63
2022/06/15 05:17:11;;;;;;;8.40;3.80;;;;;;;22.84;57.53;100360.48;215754;1274;141029;-63
2022/06/15 05:22:17;;;;;;;8.60;3.90;;;;;;;24.35;54.74;100366.08;215142;1273;139930;-61
2022/06/15 05:27:21;;;;;;;3.50;3.20;;;;;;;25.19;51.61;100370.30;214149;1274;141505;-63
2022/06/15 05:32:25;;;;;;;4.70;3.40;;;;;;;26.36;49.53;100373.73;215717;1272;141352;-62
2022/06/15 05:37:31;;;;;;;3.60;2.30;;;;;;;27.45;46.82;100374.42;214518;1272;139890;-61
2022/06/15 05:42:35;;;;;;;4.00;2.00;;;;;;;29.50;45.33;100382.09;214360;1274;139771;-61
2022/06/15 05:47:40;;;;;;;2.50;2.10;;;;;;;29.39;44.26;100391.31;213981;1271;140748;-62
2022/06/15 05:52:44;;;;;;;4.00;1.70;;;;;;;27.65;44.15;100390.81;214751;1274;140308;-63
2022/06/15 05:57:48;;;;;;;4.60;1.90;;;;;;;26.21;44.03;100389.60;214728;1271;139695;-63
2022/06/15 06:02:53;;;;;;;2.30;1.70;;;;;;;25.27;44.52;100387.39;214504;1273;151625;-62
2022/06/15 06:07:58;;;;;;;8.20;2.40;;;;;;;24.22;44.99;100389.89;214256;1274;140244;-62
2022/06/15 06:13:02;;;;;;;4.60;2.00;;;;;;;22.88;45.26;100391.40;215256;1272;140188;-62
2022/06/15 06:18:06;;;;;;;1.90;1.50;;;;;;;21.88;46.26;100398.27;213677;1274;139852;-65
2022/06/15 06:23:12;;;;;;;5.60;2.60;;;;;;;21.24;47.31;100404.82;215254;1273;139980;-62
2022/06/15 06:28:34;;;;;;;3.90;2.40;;;;;;;20.73;48.12;100402.69;214841;1274;140284;-64
2022/06/15 06:33:40;;;;;;;4.60;1.90;;;;;;;20.21;48.95;100399.70;214255;1273;139764;-64
2022/06/15 06:38:50;;;;;;;3.00;1.80;;;;;;;19.88;49.50;100398.35;214790;1274;140218;-64
2022/06/15 06:43:54;;;;;;;4.50;2.10;;;;;;;19.68;50.17;100400.04;213515;1274;139306;-65
2022/06/15 06:48:59;;;;;;;2.70;2.10;;;;;;;19.38;50.55;100402.48;215851;1273;139406;-65
2022/06/15 06:54:05;;;;;;;4.00;2.60;;;;;;;19.08;51.08;100402.74;215464;1273;140970;-65
2022/06/15 06:59:14;;;;;;;3.00;2.20;;;;;;;18.79;51.91;100403.94;216252;1272;139772;-65
2022/06/15 07:04:19;;;;;;;5.20;1.80;;;;;;;18.55;52.43;100403.73;215746;1272;146435;-63
2022/06/15 07:09:26;;;;;;;2.70;1.70;;;;;;;18.38;52.68;100404.54;216052;1274;141999;-64
2022/06/15 07:14:30;;;;;;;4.20;1.70;;;;;;;18.19;53.14;100406.25;215768;1274;140147;-63
2022/06/15 07:19:34;;;;;;;7.70;2.30;;;;;;;18.07;53.75;100408.18;214936;1274;140121;-64
2022/06/15 07:24:38;;;;;;;7.90;3.00;;;;;;;18.02;53.91;100400.89;214642;1274;140470;-63
2022/06/15 07:29:43;;;;;;;5.60;2.30;;;;;;;18.07;53.97;100400.95;213692;1274;141377;-64
2022/06/15 07:34:46;;;;;;;5.10;2.50;;;;;;;18.46;54.51;100402.21;214001;1274;141855;-64
2022/06/15 07:39:51;;;;;;;10.90;2.90;;;;;;;19.61;54.88;100393.01;215617;1274;142410;-65
2022/06/15 07:44:55;;;;;;;5.50;2.10;;;;;;;20.45;53.42;100390.48;214293;1274;141494;-63
2022/06/15 07:50:00;;;;;;;2.70;2.10;;;;;;;21.03;52.47;100394.31;214137;1274;141529;-63
2022/06/15 07:55:29;;;;;;;5.50;2.40;;;;;;;21.58;52.02;100391.98;213755;1274;140970;-63
2022/06/15 08:00:37;;;;;;;4.60;1.90;;;;;;;22.54;51.54;100382.95;213221;1274;140685;-65
2022/06/15 08:05:49;;;;;;;6.00;2.00;;;;;;;23.12;50.25;100381.46;213352;1274;141394;-65
2022/06/15 08:10:54;;;;;;;3.50;1.70;;;;;;;23.09;49.04;100382.45;213902;1271;140837;-64
2022/06/15 08:15:58;;;;;;;5.80;2.00;;;;;;;22.90;48.50;100384.23;213447;1272;140463;-64
2022/06/15 08:21:05;;;;;;;1.80;1.50;;;;;;;23.05;48.65;100377.96;215116;1271;141675;-63
2022/06/15 08:26:15;;;;;;;9.60;5.40;;;;;;;23.35;48.43;100384.31;213722;1274;140044;-64
2022/06/15 08:31:19;;;;;;;5.10;1.90;;;;;;;23.67;48.15;100382.95;214610;1271;141504;-63
2022/06/15 08:36:23;;;;;;;6.90;3.80;;;;;;;23.63;47.67;100386.63;215243;1271;140464;-64
2022/06/15 08:41:53;;;;;;;2.90;2.10;;;;;;;23.83;47.60;100377.68;213885;1271;141837;-64
2022/06/15 08:47:19;;;;;;;4.40;2.10;;;;;;;23.70;47.10;100379.89;216195;1271;140505;-65
2022/06/15 08:53:10;;;;;;;1.40;1.30;;;;;;;23.74;47.15;100381.54;213817;1272;140813;-64
2022/06/15 08:58:39;;;;;;;2.10;1.60;;;;;;;23.08;46.09;100389.23;213061;1274;141370;-63
2022/06/15 09:04:12;;;;;;;2.60;2.30;;;;;;;22.48;46.38;100385.44;216151;1273;141309;-64
2022/06/15 09:09:20;;;;;;;9.70;3.50;;;;;;;22.50;46.90;100384.50;215696;1273;141203;-63
2022/06/15 09:14:38;;;;;;;15.50;2.00;;;;;;;22.26;47.07;100388.26;214253;1272;143377;-63
2022/06/15 09:19:56;;;;;;;4.80;2.00;;;;;;;21.81;47.28;100391.09;215794;1273;139953;-62
2022/06/15 09:25:26;;;;;;;2.00;1.30;;;;;;;22.17;48.86;100389.95;215877;1272;140563;-65
2022/06/15 09:30:34;;;;;;;1.20;1.10;;;;;;;23.00;48.11;100383.31;213728;1271;141552;-65
2022/06/15 09:35:43;;;;;;;3.50;1.70;;;;;;;23.73;47.63;100382.27;214051;1274;140362;-65
2022/06/15 09:40:56;;;;;;;7.10;1.70;;;;;;;23.69;46.48;100385.09;214083;1272;141171;-65
2022/06/15 09:46:14;;;;;;;2.80;1.50;;;;;;;23.97;46.91;100383.67;214577;1272;140981;-64
2022/06/15 09:52:00;;;;;;;3.60;1.20;;;;;;;24.25;46.13;100383.74;214834;1273;140751;-64
2022/06/15 09:57:05;;;;;;;4.10;2.10;;;;;;;23.40;45.55;100389.94;213860;1274;140298;-64
2022/06/15 10:02:23;;;;;;;3.30;1.80;;;;;;;22.70;45.68;100390.34;214013;1273;141591;-63
2022/06/15 10:07:43;;;;;;;4.90;1.60;;;;;;;22.51;46.41;100385.60;214057;1273;139584;-63
2022/06/15 10:12:59;;;;;;;2.60;1.80;;;;;;;22.94;46.67;100384.95;214464;1273;141075;-65
2022/06/15 10:18:21;;;;;;;1.50;1.00;;;;;;;23.31;46.28;100382.66;214285;1271;140411;-65
2022/06/15 10:23:47;;;;;;;4.10;1.60;;;;;;;23.14;46.00;100384.80;214368;1272;140276;-66
2022/06/15 10:28:52;;;;;;;6.50;1.60;;;;;;;23.58;46.19;100372.64;214627;1271;140484;-66
2022/06/15 10:33:57;;;;;;;1.60;1.40;;;;;;;23.85;45.83;100369.97;214981;1272;141575;-66
2022/06/15 10:39:16;;;;;;;2.10;1.50;;;;;;;23.92;45.36;100368.67;214992;1271;141250;-65
2022/06/15 10:44:38;;;;;;;3.50;1.00;;;;;;;23.78;45.18;100362.30;216195;1271;140649;-65
2022/06/15 10:49:49;;;;;;;1.50;1.40;;;;;;;23.45;45.23;100360.70;216319;1271;140193;-65
2022/06/15 11:06:01;;;;;;;1.80;1.20;;;;;;;24.08;44.62;100344.02;216257;1271;139640;-66
2022/06/15 11:11:26;;;;;;;2.00;1.50;;;;;;;23.72;44.37;100349.08;215748;1271;140251;-64
2022/06/15 11:22:14;;;;;;;12.50;2.30;;;;;;;23.12;45.10;100356.55;214087;1271;142027;-64
2022/06/15 11:27:29;;;;;;;2.10;1.60;;;;;;;23.25;45.18;100351.88;214914;1271;141152;-65
2022/06/15 11:32:37;;;;;;;3.70;2.00;;;;;;;23.28;44.84;100348.39;213687;1272;141366;-63
2022/06/15 11:38:11;;;;;;;1.60;1.50;;;;;;;23.23;44.68;100347.24;215099;1271;141405;-64
2022/06/15 11:43:22;;;;;;;1.40;1.30;;;;;;;23.16;44.84;100346.30;213455;1271;142816;-63
2022/06/15 11:48:45;;;;;;;5.20;1.70;;;;;;;23.19;45.24;100344.02;215173;1271;141978;-65
2022/06/15 11:54:12;;;;;;;4.50;1.60;;;;;;;23.48;45.54;100345.05;213457;1271;140742;-63
2022/06/15 11:59:38;;;;;;;1.50;1.40;;;;;;;23.14;44.09;100340.95;214521;1271;140612;-64
2022/06/15 12:05:02;;;;;;;2.30;1.60;;;;;;;22.65;44.11;100335.75;213274;1271;140332;-64
2022/06/15 12:10:44;;;;;;;2.50;1.20;;;;;;;22.36;44.41;100329.48;214455;1271;139720;-64
2022/06/15 12:16:20;;;;;;;1.50;1.10;;;;;;;22.14;44.81;100333.33;214108;1271;140869;-65
2022/06/15 12:21:33;;;;;;;4.80;1.40;;;;;;;22.03;45.33;100332.90;214182;1271;140283;-64
2022/06/15 12:27:10;;;;;;;1.60;1.40;;;;;;;21.96;45.86;100336.86;214456;1271;139588;-64
2022/06/15 12:37:45;;;;;;;3.80;1.20;;;;;;;21.85;46.20;100336.52;214501;1271;140970;-64
2022/06/15 12:42:55;;;;;;;1.80;1.60;;;;;;;21.95;46.53;100333.71;214735;1271;139933;-64
2022/06/15 12:48:05;;;;;;;4.40;1.50;;;;;;;22.03;46.60;100332.41;216189;1271;140385;-66
2022/06/15 12:53:22;;;;;;;4.10;1.70;;;;;;;22.20;46.34;100331.00;216219;1271;139537;-65
2022/06/15 12:58:49;;;;;;;1.80;0.80;;;;;;;22.47;45.89;100327.48;215655;1270;140381;-64
2022/06/15 13:04:10;;;;;;;2.20;1.10;;;;;;;22.73;45.28;100321.80;215207;1271;140517;-65
2022/06/15 13:09:16;;;;;;;3.50;1.20;;;;;;;22.94;44.50;100314.01;215980;1271;139514;-66
2022/06/15 13:14:24;;;;;;;4.10;1.20;;;;;;;22.90;44.59;100310.92;215241;1271;141313;-65
2022/06/15 13:19:39;;;;;;;1.20;1.10;;;;;;;22.58;44.42;100314.52;214269;1271;140011;-65
2022/06/15 13:24:52;;;;;;;;;;;;;;;22.74;44.21;100308.84;214409;1273;140419;-65
2022/06/15 13:30:30;;;;;;;3.40;1.10;;;;;;;23.00;44.19;100302.41;214856;1271;128111;-65
2022/06/15 13:35:40;;;;;;;2.00;1.00;;;;;;;23.07;44.19;100304.56;213490;1272;141749;-65
2022/06/15 13:40:54;;;;;;;2.50;1.10;;;;;;;22.94;43.72;100303.69;214479;1272;143251;-65
2022/06/15 13:46:04;;;;;;;1.50;1.10;;;;;;;22.96;44.43;100295.92;213920;1271;140504;-64
2022/06/15 13:51:38;;;;;;;3.30;1.30;;;;;;;23.13;44.24;100293.98;213623;1271;141923;-65
2022/06/15 13:57:17;;;;;;;2.50;1.60;;;;;;;23.28;43.56;100295.00;214685;1272;141906;-65
2022/06/15 14:02:37;;;;;;;2.10;1.10;;;;;;;23.41;43.54;100290.38;213690;1273;151747;-64
2022/06/15 14:08:19;;;;;;;7.40;1.20;;;;;;;23.56;43.29;100287.89;213597;1272;140818;-63
2022/06/15 14:14:01;;;;;;;2.10;0.90;;;;;;;23.55;43.28;100285.89;214997;1271;139882;-63
2022/06/15 14:19:17;;;;;;;2.40;1.00;;;;;;;23.15;42.99;100280.27;214707;1271;141136;-65
2022/06/15 14:24:28;;;;;;;3.20;1.30;;;;;;;22.90;42.93;100274.86;213989;1271;139991;-62
2022/06/15 14:29:41;;;;;;;4.10;2.20;;;;;;;22.93;42.86;100272.27;214108;1272;142900;-63
2022/06/15 14:34:45;;;;;;;5.00;1.40;;;;;;;22.98;43.01;100269.55;213653;1272;140046;-66
2022/06/15 14:39:53;;;;;;;1.50;1.40;;;;;;;23.12;43.30;100265.50;215211;1271;141778;-66
2022/06/15 14:45:16;;;;;;;2.10;0.90;;;;;;;22.96;43.31;100263.89;215545;1271;141278;-63
2022/06/15 14:50:21;;;;;;;3.60;1.40;;;;;;;22.74;43.52;100268.98;216158;1271;139479;-63
2022/06/15 14:55:26;;;;;;;3.30;1.20;;;;;;;22.63;43.72;100267.15;216294;1271;160155;-63
2022/06/15 15:00:35;;;;;;;2.10;1.10;;;;;;;22.67;43.72;100260.10;216462;1271;139675;-62
2022/06/15 15:05:40;;;;;;;2.60;0.90;;;;;;;22.77;42.92;100247.52;216312;1271;139555;-65
2022/06/15 15:10:45;;;;;;;4.60;1.00;;;;;;;22.65;42.56;100237.27;216290;1272;141103;-64
2022/06/15 15:15:53;;;;;;;2.30;1.10;;;;;;;22.60;42.65;100233.63;214530;1274;140311;-65
2022/06/15 15:20:58;;;;;;;1.30;1.30;;;;;;;22.57;42.84;100230.43;214652;1271;139631;-63
2022/06/15 15:26:03;;;;;;;1.60;1.50;;;;;;;22.59;42.87;100230.65;214235;1273;140373;-63
2022/06/15 15:42:13;;;;;;;3.30;0.80;;;;;;;22.85;42.83;100222.65;213650;1272;140278;-63
2022/06/15 15:47:18;;;;;;;2.60;1.10;;;;;;;22.85;42.56;100218.14;214783;1273;139644;-63
2022/06/15 15:52:23;;;;;;;2.40;1.30;;;;;;;22.72;42.35;100213.80;214155;1274;139594;-63
2022/06/15 15:57:28;;;;;;;0.80;0.80;;;;;;;22.54;42.39;100208.85;213475;1273;139842;-63
2022/06/15 16:02:37;;;;;;;1.60;1.20;;;;;;;22.42;43.09;100208.96;213537;1272;143013;-63
2022/06/15 16:07:43;;;;;;;2.80;1.10;;;;;;;22.38;42.74;100206.83;214439;1274;139460;-63
2022/06/15 16:12:47;;;;;;;2.80;1.10;;;;;;;22.35;42.84;100209.23;213944;1274;139879;-63
2022/06/15 16:17:51;;;;;;;1.70;1.20;;;;;;;22.24;42.77;100211.40;213094;1274;140100;-63
2022/06/15 16:22:58;;;;;;;8.60;1.20;;;;;;;22.14;42.92;100212.77;213846;1274;163674;-64
2022/06/15 16:28:06;;;;;;;2.80;1.40;;;;;;;22.04;43.11;100213.75;213327;1271;140333;-63
2022/06/15 16:33:11;;;;;;;1.80;1.20;;;;;;;22.00;43.61;100208.02;215646;1271;142162;-62
2022/06/15 16:38:18;;;;;;;3.10;1.60;;;;;;;21.85;43.92;100205.87;214832;1271;139521;-64
2022/06/15 16:43:24;;;;;;;1.80;1.20;;;;;;;21.60;44.28;100204.08;214063;1272;140498;-64
2022/06/15 16:48:30;;;;;;;1.70;1.50;;;;;;;21.41;44.41;100203.23;215278;1272;139629;-64
2022/06/15 16:53:36;;;;;;;0.80;0.80;;;;;;;21.40;44.67;100197.95;213874;1271;139736;-62
2022/06/15 16:58:42;;;;;;;2.40;1.40;;;;;;;21.41;45.05;100194.39;216587;1271;140183;-63
2022/06/15 17:03:49;;;;;;;3.30;1.60;;;;;;;21.41;45.50;100188.42;215464;1271;139712;-63
2022/06/15 17:08:55;;;;;;;4.60;1.20;;;;;;;21.38;45.27;100184.85;215995;1271;140077;-63
2022/06/15 17:13:59;;;;;;;2.00;1.50;;;;;;;21.35;45.62;100183.76;215043;1271;140101;-62
2022/06/15 17:19:06;;;;;;;0.90;0.70;;;;;;;21.26;45.97;100177.76;215678;1271;140208;-62
2022/06/15 17:24:15;;;;;;;1.40;0.90;;;;;;;21.17;45.54;100176.02;213783;1271;140574;-62
2022/06/15 17:29:23;;;;;;;1.20;1.10;;;;;;;20.99;45.72;100177.16;215230;1271;140456;-61
2022/06/15 17:34:28;;;;;;;1.70;1.50;;;;;;;20.86;46.25;100169.90;213817;1274;140334;-64
2022/06/15 17:39:34;;;;;;;1.90;1.20;;;;;;;20.77;46.25;100167.81;213961;1272;140100;-62
2022/06/15 17:44:39;;;;;;;1.20;1.20;;;;;;;20.69;46.23;100168.75;214418;1272;140053;-61
2022/06/15 17:49:43;;;;;;;4.10;1.80;;;;;;;20.52;46.27;100164.45;214372;1271;139981;-65
2022/06/15 17:54:49;;;;;;;1.60;1.10;;;;;;;20.38;47.00;100163.98;214103;1271;141981;-64
2022/06/15 17:59:54;;;;;;;1.90;1.30;;;;;;;20.22;48.01;100164.08;214508;1271;140599;-65
2022/06/15 18:04:59;;;;;;;2.40;1.60;;;;;;;20.00;48.66;100165.29;214809;1271;139742;-65
2022/06/15 18:10:05;;;;;;;1.40;1.30;;;;;;;19.77;49.62;100166.49;214911;1271;139664;-64
2022/06/15 18:15:19;;;;;;;4.80;1.70;;;;;;;19.51;50.26;100162.77;214755;1273;140957;-65
2022/06/15 18:20:32;;;;;;;1.60;1.40;;;;;;;19.23;51.09;100166.25;214329;1272;162303;-64
2022/06/15 18:25:36;;;;;;;1.80;1.60;;;;;;;18.95;51.86;100165.30;214848;1273;140660;-65
2022/06/15 18:30:40;;;;;;;2.60;1.40;;;;;;;18.67;52.75;100163.88;212982;1274;140238;-66
2022/06/15 18:35:45;;;;;;;1.90;1.90;;;;;;;18.36;53.34;100170.69;214535;1273;142156;-66
2022/06/15 18:40:51;;;;;;;2.10;1.30;;;;;;;18.08;54.23;100169.80;213781;1272;140710;-65
2022/06/15 18:51:24;;;;;;;1.80;1.70;;;;;;;17.49;55.59;100171.46;216266;1273;140833;-65
2022/06/15 18:56:31;;;;;;;2.10;1.90;;;;;;;17.20;56.19;100167.71;216401;1273;142578;-65
2022/06/15 19:01:37;;;;;;;2.30;2.00;;;;;;;16.95;56.69;100172.68;216369;1272;140057;-66
2022/06/15 19:06:44;;;;;;;3.40;1.70;;;;;;;16.71;56.96;100178.31;216393;1273;140047;-65
2022/06/15 19:11:52;;;;;;;1.50;1.40;;;;;;;16.43;57.67;100180.83;216199;1272;140733;-65
2022/06/15 19:16:57;;;;;;;1.50;1.40;;;;;;;16.23;58.07;100185.73;215839;1273;140498;-65
2022/06/15 19:22:03;;;;;;;1.80;1.70;;;;;;;16.00;58.62;100192.04;215137;1273;139762;-65
2022/06/15 19:27:10;;;;;;;1.80;1.40;;;;;;;15.73;59.17;100190.39;214793;1273;141037;-65
2022/06/15 19:32:16;;;;;;;2.30;2.10;;;;;;;15.47;59.61;100191.66;214413;1274;141427;-64
2022/06/15 19:37:24;;;;;;;2.10;2.00;;;;;;;15.28;60.19;100194.06;213816;1274;141068;-65
2022/06/15 19:42:30;;;;;;;2.50;2.30;;;;;;;15.16;60.91;100191.21;213732;1274;204029;-65
2022/06/15 19:47:39;;;;;;;7.10;3.30;;;;;;;15.05;61.43;100190.30;215360;1274;140583;-65
2022/06/15 19:52:45;;;;;;;3.80;2.60;;;;;;;14.94;61.80;100191.64;214552;1271;142114;-63
2022/06/15 19:57:51;;;;;;;7.10;3.10;;;;;;;14.83;62.29;100185.29;213411;1274;140431;-64
2022/06/15 20:02:55;;;;;;;7.70;3.30;;;;;;;14.61;62.59;100181.05;214186;1272;139495;-62
2022/06/15 20:08:01;;;;;;;3.40;2.40;;;;;;;14.35;63.42;100182.02;214270;1272;231815;-64
2022/06/15 20:13:05;;;;;;;10.10;3.50;;;;;;;14.14;63.62;100183.14;213841;1272;140083;-65
2022/06/15 20:18:13;;;;;;;3.20;3.00;;;;;;;13.96;64.22;100179.21;213638;1271;140316;-64
2022/06/15 20:23:18;;;;;;;;;;;;;;;13.90;64.69;100182.05;214452;1271;141079;-64
2022/06/15 20:28:38;;;;;;;5.50;3.00;;;;;;;13.88;64.75;100184.98;215445;1273;128617;-66
2022/06/15 20:33:50;;;;;;;3.80;3.50;;;;;;;13.87;64.90;100178.37;214349;1271;140642;-65
2022/06/15 20:38:55;;;;;;;3.00;2.60;;;;;;;13.71;64.99;100175.45;213774;1271;140749;-63
2022/06/15 20:44:03;;;;;;;4.30;2.80;;;;;;;13.51;65.18;100176.34;214827;1271;140390;-64
2022/06/15 20:49:15;;;;;;;5.30;4.00;;;;;;;13.29;65.88;100168.39;214222;1271;140047;-64
2022/06/15 20:54:21;;;;;;;4.70;3.50;;;;;;;13.19;66.16;100170.34;216330;1271;139467;-65
2022/06/15 20:59:33;;;;;;;6.00;4.10;;;;;;;13.19;66.26;100168.73;216456;1271;140620;-64
2022/06/15 21:04:37;;;;;;;8.80;5.30;;;;;;;13.12;66.42;100166.95;216231;1271;141218;-65
2022/06/15 21:09:42;;;;;;;8.20;4.70;;;;;;;12.97;66.44;100166.28;216383;1271;140916;-66
2022/06/15 21:20:17;;;;;;;8.50;5.40;;;;;;;12.87;66.92;100159.42;215619;1271;140041;-63
2022/06/15 21:25:29;;;;;;;12.00;5.30;;;;;;;12.66;67.13;100158.92;213599;1272;139828;-65
2022/06/15 21:30:35;;;;;;;5.60;3.90;;;;;;;12.48;67.34;100165.07;215184;1271;139503;-64
2022/06/15 21:35:40;;;;;;;6.10;5.00;;;;;;;12.36;68.17;100163.28;215053;1271;140360;-65
2022/06/15 21:40:48;;;;;;;8.30;5.80;;;;;;;12.32;67.99;100161.38;214967;1271;141954;-65
2022/06/15 21:45:54;;;;;;;8.90;5.30;;;;;;;12.35;68.03;100159.84;214364;1271;140995;-64
2022/06/15 21:51:01;;;;;;;10.80;7.90;;;;;;;12.35;68.27;100156.09;214433;1272;140378;-64
2022/06/15 21:56:07;;;;;;;9.10;6.90;;;;;;;12.14;67.81;100160.04;213499;1273;141314;-63
2022/06/15 22:01:14;;;;;;;11.00;7.30;;;;;;;12.00;68.42;100164.05;214154;1272;139843;-65
2022/06/15 22:06:19;;;;;;;8.70;7.70;;;;;;;11.89;68.58;100161.29;214278;1274;140051;-64
2022/06/15 22:11:24;;;;;;;13.40;7.80;;;;;;;11.71;69.13;100160.38;214422;1272;141152;-66
2022/06/15 22:16:29;;;;;;;6.70;5.60;;;;;;;11.70;69.69;100153.82;214028;1273;141937;-68
2022/06/15 22:21:34;;;;;;;6.50;5.60;;;;;;;11.65;69.36;100152.48;214844;1272;140446;-66
2022/06/15 22:26:41;;;;;;;6.50;5.30;;;;;;;11.52;69.61;100149.56;214589;1272;140164;-65
2022/06/15 22:31:49;;;;;;;8.40;5.40;;;;;;;11.48;69.79;100147.29;213639;1274;140488;-65
2022/06/15 22:36:55;;;;;;;7.90;5.10;;;;;;;11.41;69.84;100145.77;215166;1272;140197;-64
2022/06/15 22:42:00;;;;;;;7.80;4.60;;;;;;;11.36;69.99;100144.64;213994;1273;141818;-65
2022/06/15 22:47:06;;;;;;;4.90;4.50;;;;;;;11.22;69.93;100150.47;215628;1273;140778;-64
2022/06/15 22:52:10;;;;;;;5.00;4.60;;;;;;;11.14;70.45;100152.26;216333;1271;232820;-64
2022/06/15 22:57:15;;;;;;;7.30;4.20;;;;;;;11.22;70.65;100144.76;216224;1271;141182;-63
2022/06/15 23:02:19;;;;;;;7.10;5.20;;;;;;;11.23;70.59;100149.42;215696;1271;141905;-65
2022/06/15 23:07:24;;;;;;;4.40;4.10;;;;;;;11.14;70.57;100140.19;216386;1271;141970;-65
2022/06/15 23:12:28;;;;;;;6.40;5.00;;;;;;;11.13;70.55;100141.64;216351;1273;141384;-66
2022/06/15 23:17:32;;;;;;;6.50;5.90;;;;;;;11.06;70.61;100137.26;216238;1273;140537;-66
2022/06/15 23:22:40;;;;;;;6.10;5.00;;;;;;;11.10;70.93;100129.41;214921;1274;140271;-63
2022/06/15 23:27:45;;;;;;;7.00;4.30;;;;;;;11.11;70.84;100130.83;214885;1273;140722;-64
2022/06/15 23:32:50;;;;;;;8.10;7.10;;;;;;;11.06;70.75;100128.36;215764;1273;143510;-68
2022/06/15 23:37:55;;;;;;;7.60;5.90;;;;;;;11.00;70.85;100139.90;214634;1274;139815;-63
2022/06/15 23:42:59;;;;;;;9.80;6.40;;;;;;;10.93;70.80;100136.36;213653;1274;141376;-66
2022/06/15 23:48:05;;;;;;;10.70;7.40;;;;;;;10.84;71.12;100134.02;214387;1272;140305;-64
2022/06/15 23:53:14;;;;;;;17.10;7.00;;;;;;;10.83;71.22;100126.15;213455;1274;140714;-63
2022/06/15 23:58:19;;;;;;;11.50;6.60;;;;;;;10.72;71.09;100122.66;213569;1274;141272;-66
